Stacja Pogody
Warszawa Praga-Północ

Szerokość 52°15'43"N Długość 21°01'22"E Wysokość 110m n.p.m.

Depesza TAF dla Warszawy

TAF EPWA 201130Z 2012/2112 10010KT CAVOK   
    
Stacja: Warszawa - Okęcie                                                              
Dzień miesiąca: 20, godzina: 11:30 UTC                                                           
Wiatr: kierunek 90° (wschodni), prędkość 18.5 km/h (3 w skali Beauforta)           
Widzialność:  ponad 10 km